Airfield :







YOU CAN JOIN US ON...

 
LOGIN :

Register | Disclaimer

   EN    FR    IT 

 









Legend :    VFR   Marginal VFR   IFR   Intensive IFR   Very Intensive IFR
Visi :
Ceiling :
>= 8 km
>= 3000ft
5 to 8 km
1000 to 3000 ft
1500m to 5 km
500 to 1000 ft
800 to 1500m
200 to 500 ft
< 800m
< 200 ft
Symbols :   Thunderstorms  Fog  Heavy snow  Heavy precipitations  Wind > 20 kt







- Airport Elevation : 244 ft


KSFM - Sanford Regional

CURRENT METAR :
  • 190156Z AUTO 26003KT 10SM CLR 04/03 A3036 RMK AO2 SLP285 T00390033 PNO $

EXPIRED METARs :
  • 190056Z AUTO 25003KT 10SM CLR 05/05 A3035 RMK AO2 SLP281 T00500050 PNO $
  • 182356Z AUTO 27004KT 10SM CLR 06/05 A3034 RMK AO2 SLP279 6//// T00560050 10172 20056 53009 PNO $
  • 182256Z AUTO 00000KT 10SM CLR 10/07 A3032 RMK AO2 SLP273 T01000072 PNO $

TAF N/A
No reported NOTAMs for that airfield.



MET'MAP, your aeronautical weather chart ! - Copyright ORBIFLY December 2007 - Disclaimer

ORBIFLY MET'MAP TEAM :

Programming & Development : Alexandra Zaïnal
Concept & Development : Baudouin d'Aumeries
Co-Development & Prog : Marc-Olivier Méhu
Technical & hardware support : Manuel Goepfert

Contact : metmap@orbifly.com




SOURCES & CREDITS :

   NOAA